Time;durP1;ratioP1;P1;durP2;ratioP2;P2;SDS_P1;SDS_P2;PMS_P1;PMS_P2;Temp;Humidity;BMP_temperature;BMP_pressure;BME280_temperature;BME280_humidity;BME280_pressure;Samples;Min_cycle;Max_cycle;Signal;HPM_P1;HPM_P2
2024/03/05 00:00:13;;;;;;;8.75;6.43;;;11.80;59.80;;;;;;4853323;29;20393;-85
2024/03/05 00:02:40;;;;;;;9.02;6.03;;;11.80;59.90;;;;;;4839442;29;20040;-83
2024/03/05 00:05:07;;;;;;;9.27;6.40;;;11.80;59.90;;;;;;4837420;29;20089;-82
2024/03/05 00:07:36;;;;;;;10.85;6.30;;;11.80;59.90;;;;;;4851690;29;20046;-82
2024/03/05 00:10:03;;;;;;;10.10;6.20;;;11.80;60.00;;;;;;4853576;29;20034;-82
2024/03/05 00:12:30;;;;;;;8.98;6.35;;;11.80;60.00;;;;;;4856006;29;20536;-84
2024/03/05 00:14:56;;;;;;;11.30;5.53;;;11.80;60.00;;;;;;4853529;29;20037;-84
2024/03/05 00:17:26;;;;;;;8.35;6.18;;;11.80;59.90;;;;;;4843743;29;20045;-85
2024/03/05 00:19:52;;;;;;;9.20;6.03;;;11.80;59.80;;;;;;4855721;29;20037;-84
2024/03/05 00:22:21;;;;;;;8.57;5.72;;;11.80;59.90;;;;;;4853846;29;20140;-83
2024/03/05 00:24:47;;;;;;;9.85;6.00;;;11.80;59.80;;;;;;4851882;29;20528;-83
2024/03/05 00:27:13;;;;;;;9.90;6.60;;;11.80;59.80;;;;;;4838412;29;20049;-81
2024/03/05 00:29:43;;;;;;;10.65;6.07;;;11.80;59.70;;;;;;4854336;29;20469;-82
2024/03/05 00:32:09;;;;;;;8.43;5.43;;;11.80;59.70;;;;;;4853037;29;20093;-82
2024/03/05 00:34:35;;;;;;;10.55;5.55;;;11.80;59.40;;;;;;4853135;29;20061;-83
2024/03/05 00:37:01;;;;;;;8.40;5.55;;;11.80;59.50;;;;;;4854606;29;20040;-82
2024/03/05 00:39:27;;;;;;;8.25;5.15;;;11.80;59.50;;;;;;4853535;29;20065;-81
2024/03/05 00:41:54;;;;;;;8.27;5.32;;;11.80;59.30;;;;;;4852916;29;20404;-82
2024/03/05 00:44:20;;;;;;;7.00;5.00;;;11.80;59.20;;;;;;4853352;29;20144;-81
2024/03/05 00:46:46;;;;;;;9.48;5.50;;;11.70;59.20;;;;;;4852238;29;20044;-81
2024/03/05 00:49:12;;;;;;;9.10;5.60;;;11.70;59.10;;;;;;4868146;29;20076;-81
2024/03/05 00:51:38;;;;;;;7.97;5.07;;;11.70;59.10;;;;;;4859543;29;20065;-81
2024/03/05 00:54:03;;;;;;;7.28;5.05;;;11.70;59.10;;;;;;4852134;29;20042;-81
2024/03/05 00:56:29;;;;;;;8.85;5.47;;;11.70;59.10;;;;;;4852650;29;20438;-81
2024/03/05 00:58:56;;;;;;;7.88;5.55;;;11.70;59.10;;;;;;4854366;29;20041;-82
2024/03/05 01:01:22;;;;;;;7.85;4.88;;;11.70;59.10;;;;;;4852335;29;20045;-81
2024/03/05 01:03:48;;;;;;;9.70;5.30;;;11.70;59.00;;;;;;4853513;29;20098;-82
2024/03/05 01:06:14;;;;;;;8.45;5.72;;;11.70;59.10;;;;;;4851778;29;20045;-81
2024/03/05 01:08:40;;;;;;;7.00;4.88;;;11.70;59.00;;;;;;4852109;29;20068;-81
2024/03/05 01:11:07;;;;;;;9.68;5.00;;;11.70;58.90;;;;;;4837888;29;20408;-80
2024/03/05 01:13:33;;;;;;;7.20;5.05;;;11.70;58.90;;;;;;4847146;29;20040;-80
2024/03/05 01:16:00;;;;;;;10.10;5.88;;;11.70;58.90;;;;;;4854769;29;20063;-81
2024/03/05 01:18:26;;;;;;;7.65;5.28;;;11.70;58.80;;;;;;4874862;29;20432;-81
2024/03/05 01:20:53;;;;;;;7.95;5.55;;;11.70;58.80;;;;;;4857237;29;20037;-81
2024/03/05 01:23:19;;;;;;;9.07;6.03;;;11.60;58.70;;;;;;4855742;29;20025;-81
2024/03/05 01:25:45;;;;;;;7.30;5.00;;;11.60;58.60;;;;;;4856731;29;20361;-81
2024/03/05 01:28:15;;;;;;;6.40;4.95;;;11.60;58.80;;;;;;4856676;29;20050;-81
2024/03/05 01:30:43;;;;;;;7.35;5.30;;;11.60;58.70;;;;;;4855101;29;20137;-81
2024/03/05 01:33:19;;;;;;;7.05;5.25;;;11.60;58.60;;;;;;4844189;29;20041;-81
2024/03/05 01:35:48;;;;;;;8.13;5.30;;;11.60;58.50;;;;;;4854876;29;20505;-79
2024/03/05 01:38:15;;;;;;;7.18;5.03;;;11.60;59.20;;;;;;4868948;29;20033;-80
2024/03/05 01:40:42;;;;;;;9.13;5.10;;;11.60;58.50;;;;;;4853214;29;20052;-79
2024/03/05 01:43:08;;;;;;;8.90;5.82;;;11.60;58.70;;;;;;4855181;29;20041;-80
2024/03/05 01:45:34;;;;;;;9.65;5.85;;;11.60;58.60;;;;;;4855763;29;20535;-81
2024/03/05 01:48:01;;;;;;;7.15;4.95;;;11.60;58.60;;;;;;4856579;29;20042;-81
2024/03/05 01:50:35;;;;;;;9.55;5.75;;;11.60;58.60;;;;;;4870990;29;20065;-81
2024/03/05 01:53:06;;;;;;;7.00;4.82;;;11.60;58.60;;;;;;4853151;29;20036;-82
2024/03/05 01:55:33;;;;;;;8.30;5.60;;;11.50;58.60;;;;;;4854499;29;20445;-83
2024/03/05 01:58:03;;;;;;;8.68;5.88;;;11.60;58.70;;;;;;4853660;29;20458;-80
2024/03/05 02:00:31;;;;;;;8.00;5.43;;;11.50;58.60;;;;;;4824023;29;20138;-80
2024/03/05 02:02:57;;;;;;;9.57;5.45;;;11.50;58.60;;;;;;4854721;29;20037;-81
2024/03/05 02:05:23;;;;;;;8.02;5.20;;;11.50;58.60;;;;;;4837427;29;20040;-81
2024/03/05 02:07:55;;;;;;;8.73;5.20;;;11.50;58.60;;;;;;4856464;29;20033;-82
2024/03/05 02:10:21;;;;;;;9.60;4.88;;;11.50;59.20;;;;;;4855607;29;21359;-81
2024/03/05 02:12:47;;;;;;;9.10;6.05;;;11.50;58.50;;;;;;4872724;29;20053;-81
2024/03/05 02:15:14;;;;;;;8.32;5.30;;;11.50;58.30;;;;;;4839071;29;20034;-81
2024/03/05 02:17:40;;;;;;;8.07;5.50;;;11.50;58.30;;;;;;4869330;29;20033;-81
2024/03/05 02:20:10;;;;;;;9.25;5.32;;;11.50;58.20;;;;;;4872866;29;20033;-81
2024/03/05 02:22:39;;;;;;;8.32;5.63;;;11.50;58.20;;;;;;4855687;29;20201;-81
2024/03/05 02:25:05;;;;;;;7.97;5.82;;;11.50;58.30;;;;;;4854775;29;20034;-80
2024/03/05 02:27:33;;;;;;;7.95;5.07;;;11.50;58.10;;;;;;4854350;29;20132;-81
2024/03/05 02:30:00;;;;;;;7.60;5.15;;;11.40;58.10;;;;;;4855601;29;20065;-81
2024/03/05 02:32:26;;;;;;;8.60;5.43;;;11.40;58.10;;;;;;4853569;29;20037;-81
2024/03/05 02:34:54;;;;;;;7.45;4.80;;;11.40;57.80;;;;;;4855435;29;20041;-80
2024/03/05 02:37:21;;;;;;;7.82;5.30;;;11.40;57.90;;;;;;4855294;29;20420;-82
2024/03/05 02:39:47;;;;;;;9.40;5.68;;;11.40;57.90;;;;;;4855213;29;20043;-81
2024/03/05 02:42:13;;;;;;;8.82;5.85;;;11.40;57.80;;;;;;4838839;29;20073;-81
2024/03/05 02:44:39;;;;;;;8.95;6.03;;;11.40;57.70;;;;;;4853962;29;20524;-82
2024/03/05 02:47:09;;;;;;;8.50;5.03;;;11.40;57.70;;;;;;4854197;29;20553;-82
2024/03/05 02:49:36;;;;;;;8.93;5.47;;;11.40;57.70;;;;;;4855248;29;20120;-81
2024/03/05 02:52:03;;;;;;;8.88;5.13;;;11.40;57.80;;;;;;4854158;29;20041;-81
2024/03/05 02:54:29;;;;;;;7.85;5.43;;;11.30;57.80;;;;;;4868021;29;20504;-81
2024/03/05 02:56:55;;;;;;;7.80;5.38;;;11.30;57.90;;;;;;4854695;29;20033;-81
2024/03/05 02:59:21;;;;;;;9.63;5.57;;;11.30;57.90;;;;;;4853647;29;20037;-81
2024/03/05 03:01:47;;;;;;;8.48;5.40;;;11.30;57.90;;;;;;4853887;29;20037;-81
2024/03/05 03:04:15;;;;;;;7.70;5.00;;;11.30;57.80;;;;;;4850574;29;20042;-82
2024/03/05 03:06:41;;;;;;;8.75;5.78;;;11.30;58.50;;;;;;4866800;29;20049;-81
2024/03/05 03:09:07;;;;;;;7.28;5.15;;;11.30;57.80;;;;;;4853210;29;20128;-82
2024/03/05 03:11:34;;;;;;;9.88;5.78;;;11.30;57.80;;;;;;4841862;29;20527;-83
2024/03/05 03:14:00;;;;;;;8.82;5.50;;;11.30;57.60;;;;;;4854443;29;20083;-82
2024/03/05 03:16:27;;;;;;;7.55;5.25;;;11.30;57.60;;;;;;4851388;29;20049;-81
2024/03/05 03:18:53;;;;;;;6.65;4.95;;;11.30;57.50;;;;;;4853264;29;20049;-78
2024/03/05 03:21:19;;;;;;;7.88;5.20;;;11.30;57.50;;;;;;4853984;29;20042;-79
2024/03/05 03:23:45;;;;;;;8.30;5.38;;;11.30;57.50;;;;;;4859970;29;20048;-81
2024/03/05 03:26:11;;;;;;;8.93;5.45;;;11.20;57.40;;;;;;4854569;29;20044;-80
2024/03/05 03:28:37;;;;;;;8.45;5.20;;;11.30;57.60;;;;;;4868295;29;20037;-80
2024/03/05 03:31:05;;;;;;;8.80;6.00;;;11.30;57.50;;;;;;4854429;29;20041;-80
2024/03/05 03:33:31;;;;;;;7.20;5.22;;;11.20;57.40;;;;;;4856416;29;20037;-80
2024/03/05 03:35:57;;;;;;;7.47;5.20;;;11.20;57.40;;;;;;4852897;29;20428;-80
2024/03/05 03:38:24;;;;;;;8.18;5.78;;;11.20;57.40;;;;;;4852087;29;20044;-80
2024/03/05 03:40:51;;;;;;;7.47;5.90;;;11.20;57.30;;;;;;4854529;29;20045;-80
2024/03/05 03:43:17;;;;;;;9.48;5.60;;;11.20;57.30;;;;;;4850922;29;20064;-78
2024/03/05 03:45:43;;;;;;;9.05;5.80;;;11.20;57.20;;;;;;4853519;29;20072;-80
2024/03/05 03:48:10;;;;;;;9.48;6.03;;;11.20;57.20;;;;;;4852567;29;20109;-80
2024/03/05 03:50:37;;;;;;;8.23;5.95;;;11.20;57.10;;;;;;4854230;29;20037;-83
2024/03/05 03:53:04;;;;;;;8.20;5.68;;;11.20;57.10;;;;;;4849353;29;20037;-78
2024/03/05 03:55:30;;;;;;;10.40;5.50;;;11.20;57.10;;;;;;4853173;29;20401;-76
2024/03/05 03:57:56;;;;;;;8.77;5.47;;;11.10;57.10;;;;;;4851541;29;20164;-76
2024/03/05 04:00:23;;;;;;;8.85;5.97;;;11.10;57.30;;;;;;4853666;29;20120;-77
2024/03/05 04:02:49;;;;;;;8.10;5.68;;;11.10;57.40;;;;;;4853668;29;20086;-77
2024/03/05 04:05:16;;;;;;;9.20;5.68;;;11.10;57.30;;;;;;4853153;29;20466;-77
2024/03/05 04:07:42;;;;;;;11.15;6.05;;;11.10;57.40;;;;;;4871122;29;20045;-77
2024/03/05 04:10:10;;;;;;;8.20;5.82;;;11.10;57.40;;;;;;4866108;29;20113;-78
2024/03/05 04:12:38;;;;;;;8.73;5.43;;;11.10;57.40;;;;;;4870938;29;20481;-77
2024/03/05 04:15:07;;;;;;;7.55;5.80;;;11.10;57.40;;;;;;4855260;29;20085;-77
2024/03/05 04:17:36;;;;;;;7.90;5.78;;;11.10;57.40;;;;;;4852959;29;20080;-77
2024/03/05 04:20:04;;;;;;;8.48;5.85;;;11.10;57.30;;;;;;4852692;29;20036;-76
2024/03/05 04:22:30;;;;;;;8.25;5.95;;;11.10;57.30;;;;;;4851299;29;20049;-76
2024/03/05 04:24:57;;;;;;;9.65;6.40;;;11.10;57.30;;;;;;4852437;29;20041;-77
2024/03/05 04:27:24;;;;;;;9.77;5.95;;;11.00;57.30;;;;;;4852548;29;20045;-78
2024/03/05 04:29:56;;;;;;;8.13;5.70;;;11.00;57.30;;;;;;4851243;29;20045;-77
2024/03/05 04:32:26;;;;;;;8.35;5.80;;;11.10;57.50;;;;;;4852960;29;20037;-77
2024/03/05 04:35:06;;;;;;;10.65;6.03;;;11.00;57.50;;;;;;4852033;29;20505;-78
2024/03/05 04:37:32;;;;;;;10.27;6.25;;;11.00;57.60;;;;;;4853639;29;20038;-79
2024/03/05 04:39:58;;;;;;;8.27;5.85;;;11.00;57.60;;;;;;4851273;29;20037;-77
2024/03/05 04:42:25;;;;;;;8.32;6.32;;;11.10;57.60;;;;;;4851790;29;20060;-77
2024/03/05 04:44:53;;;;;;;9.73;6.70;;;11.00;57.70;;;;;;4851667;29;20615;-79
2024/03/05 04:47:19;;;;;;;10.35;5.85;;;11.00;57.80;;;;;;4850558;29;20124;-80
2024/03/05 04:49:45;;;;;;;10.43;5.80;;;11.00;57.80;;;;;;4836634;29;20033;-82
2024/03/05 04:52:11;;;;;;;7.75;5.72;;;11.00;57.70;;;;;;4855188;29;20068;-85
2024/03/05 04:54:37;;;;;;;8.18;5.65;;;11.00;57.60;;;;;;4855759;29;20033;-81
2024/03/05 04:57:05;;;;;;;11.55;6.38;;;10.90;57.70;;;;;;4855026;29;20036;-80
2024/03/05 04:59:32;;;;;;;8.93;5.95;;;10.90;57.70;;;;;;4854116;29;20098;-79
2024/03/05 05:01:58;;;;;;;7.95;5.85;;;10.90;57.70;;;;;;4871378;29;21154;-78
2024/03/05 05:04:24;;;;;;;8.65;6.35;;;10.90;57.80;;;;;;4856102;29;20041;-80
2024/03/05 05:06:50;;;;;;;13.65;6.78;;;10.90;58.20;;;;;;4866233;29;20042;-79
2024/03/05 05:09:18;;;;;;;9.80;6.55;;;10.90;58.80;;;;;;4856595;29;20488;-79
2024/03/05 05:11:44;;;;;;;9.88;6.65;;;10.90;59.20;;;;;;4855886;29;20064;-79
2024/03/05 05:14:11;;;;;;;11.75;6.57;;;10.90;59.70;;;;;;4837398;29;20456;-79
2024/03/05 05:16:37;;;;;;;18.02;7.35;;;10.90;60.10;;;;;;4869800;29;20893;-79
2024/03/05 05:19:04;;;;;;;8.57;6.60;;;10.90;60.40;;;;;;4855033;29;20045;-79
2024/03/05 05:21:51;;;;;;;10.73;6.45;;;10.90;60.20;;;;;;4855745;29;20045;-79
2024/03/05 05:24:17;;;;;;;9.80;6.10;;;10.90;60.20;;;;;;4836678;29;20041;-78
2024/03/05 05:26:43;;;;;;;8.55;6.25;;;10.90;60.20;;;;;;4873095;29;20057;-80
2024/03/05 05:29:09;;;;;;;8.75;6.25;;;10.90;60.10;;;;;;4856185;29;20470;-81
2024/03/05 05:31:36;;;;;;;7.88;5.90;;;10.90;60.00;;;;;;4855813;29;20396;-79
2024/03/05 05:34:03;;;;;;;9.57;6.10;;;10.90;60.00;;;;;;4854655;29;20042;-80
2024/03/05 05:36:29;;;;;;;10.50;7.05;;;10.90;60.00;;;;;;4853380;29;20064;-79
2024/03/05 05:38:58;;;;;;;9.35;6.00;;;10.90;59.90;;;;;;4869371;29;20048;-79
2024/03/05 05:41:24;;;;;;;10.88;6.40;;;10.90;59.80;;;;;;4855784;29;20378;-80
2024/03/05 05:43:51;;;;;;;10.15;6.15;;;11.00;59.80;;;;;;4856070;29;20089;-80
2024/03/05 05:46:21;;;;;;;9.95;5.78;;;11.00;59.70;;;;;;4856242;29;20481;-80
2024/03/05 05:48:49;;;;;;;8.23;5.80;;;10.90;59.70;;;;;;4845332;29;20495;-80
2024/03/05 05:51:15;;;;;;;8.13;5.55;;;10.90;59.60;;;;;;4855252;29;20040;-80
2024/03/05 05:53:41;;;;;;;8.73;6.15;;;10.90;59.60;;;;;;4854907;29;20041;-80
2024/03/05 05:56:09;;;;;;;7.68;5.68;;;10.90;59.50;;;;;;4872599;29;20248;-80
2024/03/05 05:58:35;;;;;;;8.63;6.07;;;11.00;59.40;;;;;;4855502;29;20046;-80
2024/03/05 06:01:13;;;;;;;9.27;6.13;;;11.00;59.40;;;;;;4854797;29;20041;-80
2024/03/05 06:03:44;;;;;;;8.90;5.78;;;11.00;59.40;;;;;;4852651;29;20113;-79
2024/03/05 06:06:14;;;;;;;9.93;5.93;;;11.00;59.40;;;;;;4852843;29;20041;-80
2024/03/05 06:08:40;;;;;;;7.78;5.55;;;11.00;59.40;;;;;;4854768;29;20186;-80
2024/03/05 06:11:06;;;;;;;10.20;6.25;;;11.00;59.30;;;;;;4855186;29;20136;-79
2024/03/05 06:13:33;;;;;;;9.52;5.80;;;11.00;59.30;;;;;;4868508;29;20037;-80
2024/03/05 06:15:59;;;;;;;7.57;5.78;;;11.00;59.20;;;;;;4853681;29;20088;-79
2024/03/05 06:18:25;;;;;;;8.63;5.97;;;11.00;59.20;;;;;;4854961;29;20037;-78
2024/03/05 06:20:51;;;;;;;8.10;5.55;;;11.00;59.20;;;;;;4853983;29;20037;-79
2024/03/05 06:23:17;;;;;;;7.53;6.07;;;11.00;59.00;;;;;;4854312;29;21035;-81
2024/03/05 06:25:43;;;;;;;7.50;5.97;;;11.00;59.10;;;;;;4837936;29;20048;-80
2024/03/05 06:28:10;;;;;;;9.07;6.15;;;11.00;59.00;;;;;;4871241;29;20057;-83
2024/03/05 06:30:36;;;;;;;8.80;5.78;;;11.00;59.90;;;;;;4823100;29;20042;-83
2024/03/05 06:33:04;;;;;;;8.52;5.22;;;11.10;60.40;;;;;;4854947;29;20052;-83
2024/03/05 06:35:31;;;;;;;8.55;5.65;;;11.10;60.20;;;;;;4837998;29;20037;-83
2024/03/05 06:38:00;;;;;;;7.90;5.78;;;11.10;59.90;;;;;;4839581;29;20388;-84
2024/03/05 06:40:26;;;;;;;8.77;5.47;;;11.10;59.70;;;;;;4854240;29;20487;-81
2024/03/05 06:42:52;;;;;;;9.85;6.47;;;11.10;59.60;;;;;;4854274;29;20034;-82
2024/03/05 06:45:27;;;;;;;8.27;6.05;;;11.10;59.50;;;;;;4869199;29;20124;-80
2024/03/05 06:47:56;;;;;;;9.13;5.55;;;11.10;59.60;;;;;;4855585;29;20041;-82
2024/03/05 06:50:38;;;;;;;7.25;5.30;;;11.10;59.70;;;;;;4851422;29;20036;-82
2024/03/05 06:58:38;;;;;;;7.55;5.43;;;11.10;59.90;;;;;;4854913;29;20052;-82
2024/03/05 07:01:07;;;;;;;7.43;5.28;;;11.10;59.70;;;;;;4838663;29;20060;-82
2024/03/05 07:03:38;;;;;;;8.77;6.13;;;11.10;59.80;;;;;;4852770;29;20034;-83
2024/03/05 07:06:07;;;;;;;7.38;4.97;;;11.10;59.90;;;;;;4854145;29;20129;-82
2024/03/05 07:08:40;;;;;;;8.68;5.55;;;11.10;59.90;;;;;;4850298;29;20101;-82
2024/03/05 07:11:10;;;;;;;12.20;5.53;;;11.10;60.00;;;;;;4851634;29;20081;-82
2024/03/05 07:13:45;;;;;;;8.80;5.35;;;11.10;59.90;;;;;;4853898;29;20040;-82
2024/03/05 07:16:16;;;;;;;7.50;5.10;;;11.10;59.80;;;;;;4854886;29;20033;-83
2024/03/05 07:18:47;;;;;;;9.00;5.05;;;11.10;59.90;;;;;;4853769;29;20529;-81
2024/03/05 07:21:13;;;;;;;7.60;4.68;;;11.10;59.80;;;;;;4836083;29;20044;-81
2024/03/05 07:23:44;;;;;;;7.20;4.85;;;11.10;59.80;;;;;;4823511;29;20033;-82
2024/03/05 07:26:12;;;;;;;6.68;4.68;;;11.10;59.70;;;;;;4833920;29;20040;-83
2024/03/05 07:28:38;;;;;;;6.85;4.72;;;11.20;59.70;;;;;;4822047;29;20743;-83
2024/03/05 07:31:04;;;;;;;6.00;4.40;;;11.20;59.80;;;;;;4853253;29;20117;-83
2024/03/05 07:33:31;;;;;;;7.10;5.20;;;11.20;59.80;;;;;;4854484;29;20311;-82
2024/03/05 07:35:57;;;;;;;5.25;4.20;;;11.20;59.80;;;;;;4868314;29;20132;-83
2024/03/05 07:38:23;;;;;;;6.80;4.55;;;11.20;59.80;;;;;;4854605;29;20530;-83
2024/03/05 07:40:49;;;;;;;5.70;4.45;;;11.20;59.60;;;;;;4855542;29;20037;-83
2024/03/05 07:43:15;;;;;;;5.45;4.32;;;11.20;59.50;;;;;;4855975;29;20042;-77
2024/03/05 07:45:42;;;;;;;5.30;3.58;;;11.20;59.40;;;;;;4855479;29;20045;-81
2024/03/05 07:48:11;;;;;;;5.45;3.90;;;11.30;61.90;;;;;;4854123;29;20128;-81
2024/03/05 07:50:38;;;;;;;7.10;4.38;;;11.30;61.50;;;;;;4855358;29;20548;-80
2024/03/05 07:53:04;;;;;;;5.47;4.22;;;11.30;61.10;;;;;;4834063;29;20037;-81
2024/03/05 07:55:30;;;;;;;5.43;3.95;;;11.40;60.70;;;;;;4851512;29;20536;-81
2024/03/05 07:57:56;;;;;;;6.63;4.07;;;11.40;60.30;;;;;;4852831;29;20057;-81
2024/03/05 08:00:24;;;;;;;5.68;4.10;;;11.40;60.30;;;;;;4836705;29;20037;-81
2024/03/05 08:02:53;;;;;;;4.80;3.95;;;11.40;60.50;;;;;;4853849;29;20041;-81
2024/03/05 08:05:23;;;;;;;6.35;4.05;;;11.40;60.30;;;;;;4853168;29;20041;-81
2024/03/05 08:07:56;;;;;;;5.22;4.13;;;11.40;60.30;;;;;;4839746;29;20094;-80
2024/03/05 08:10:23;;;;;;;4.55;3.70;;;11.40;60.30;;;;;;4867587;29;20033;-81
2024/03/05 08:12:53;;;;;;;5.53;3.90;;;11.40;60.10;;;;;;4853238;29;20029;-81
2024/03/05 08:15:20;;;;;;;4.82;3.80;;;11.40;59.80;;;;;;4848914;29;20068;-80
2024/03/05 08:17:47;;;;;;;5.97;4.15;;;11.40;59.60;;;;;;4852434;29;20549;-82
2024/03/05 08:20:24;;;;;;;4.65;3.58;;;11.40;59.40;;;;;;4855133;29;20117;-80
2024/03/05 08:22:49;;;;;;;5.55;3.85;;;11.40;59.30;;;;;;4853845;29;20052;-81
2024/03/05 08:25:17;;;;;;;5.05;4.07;;;11.50;59.40;;;;;;4849557;29;20042;-81
2024/03/05 08:27:47;;;;;;;3.83;3.28;;;11.50;59.40;;;;;;4869955;29;20060;-80
2024/03/05 08:30:17;;;;;;;4.43;3.30;;;11.50;59.40;;;;;;4853233;29;20503;-82
2024/03/05 08:32:46;;;;;;;5.10;3.53;;;11.50;59.60;;;;;;4853527;29;20048;-81
2024/03/05 08:35:12;;;;;;;6.18;3.97;;;11.50;59.50;;;;;;4855156;29;20502;-82
2024/03/05 08:37:43;;;;;;;4.32;3.35;;;11.50;59.50;;;;;;4839182;29;20038;-81
2024/03/05 08:40:14;;;;;;;4.47;3.40;;;11.50;59.70;;;;;;4854644;29;20174;-82
2024/03/05 08:42:45;;;;;;;4.35;3.40;;;11.50;59.70;;;;;;4854331;29;20469;-82
2024/03/05 08:45:15;;;;;;;4.50;3.50;;;11.50;59.50;;;;;;4843945;29;20034;-82
2024/03/05 08:47:44;;;;;;;3.80;3.30;;;11.50;59.60;;;;;;4853513;29;20053;-81
2024/03/05 08:50:11;;;;;;;4.30;3.22;;;11.50;59.30;;;;;;4854954;29;20045;-84
2024/03/05 08:52:37;;;;;;;3.53;2.60;;;11.50;59.10;;;;;;4823770;29;20112;-81
2024/03/05 08:55:08;;;;;;;3.88;3.10;;;11.50;59.90;;;;;;4836774;29;20041;-82
2024/03/05 08:57:38;;;;;;;3.85;3.20;;;11.60;59.70;;;;;;4851920;29;20429;-82
2024/03/05 09:00:05;;;;;;;4.43;3.45;;;11.60;59.40;;;;;;4852324;29;20037;-82
2024/03/05 09:02:49;;;;;;;3.58;3.15;;;11.60;59.40;;;;;;4852315;29;20053;-81
2024/03/05 09:05:15;;;;;;;4.22;3.13;;;11.60;59.30;;;;;;4849965;29;20034;-83
2024/03/05 09:07:42;;;;;;;3.53;3.13;;;11.60;59.10;;;;;;4851958;29;20045;-83
2024/03/05 09:10:10;;;;;;;4.43;3.58;;;11.70;59.00;;;;;;4840660;29;20045;-83
2024/03/05 09:12:36;;;;;;;4.63;3.20;;;11.70;59.00;;;;;;4853762;29;20037;-82
2024/03/05 09:15:05;;;;;;;4.70;3.38;;;11.60;59.10;;;;;;4852094;29;20424;-80
2024/03/05 09:17:33;;;;;;;6.47;4.13;;;11.70;58.80;;;;;;4848756;29;20106;-79
2024/03/05 09:20:00;;;;;;;4.40;3.50;;;11.70;58.60;;;;;;4850577;29;20069;-80
2024/03/05 09:22:28;;;;;;;5.03;3.17;;;11.60;58.60;;;;;;4851814;29;20038;-80
2024/03/05 09:24:54;;;;;;;3.53;2.97;;;11.70;58.80;;;;;;4857316;29;20048;-79
2024/03/05 09:27:20;;;;;;;5.32;3.03;;;11.70;58.70;;;;;;4850579;29;20049;-80
2024/03/05 09:29:46;;;;;;;4.22;3.42;;;11.70;58.70;;;;;;4852305;29;20045;-81
2024/03/05 09:34:56;;;;;;;4.03;3.33;;;11.70;59.00;;;;;;4865211;29;20528;-81
2024/03/05 09:37:23;;;;;;;4.72;3.75;;;11.70;58.80;;;;;;4837475;29;20469;-83
2024/03/05 09:39:50;;;;;;;5.10;3.30;;;11.70;59.00;;;;;;4853222;29;20060;-81
2024/03/05 09:42:18;;;;;;;5.63;3.47;;;11.70;59.20;;;;;;4855812;29;20041;-81
2024/03/05 09:44:45;;;;;;;3.80;3.35;;;11.70;59.50;;;;;;4854016;29;20042;-81
2024/03/05 09:47:13;;;;;;;4.35;3.10;;;11.70;59.80;;;;;;4853659;29;20046;-80
2024/03/05 09:49:42;;;;;;;3.65;2.85;;;11.70;59.60;;;;;;4853709;29;20037;-80
2024/03/05 09:52:09;;;;;;;3.90;2.83;;;11.70;59.70;;;;;;4853304;29;20085;-80
2024/03/05 09:54:36;;;;;;;4.60;2.80;;;11.70;59.50;;;;;;4837486;29;20505;-80
2024/03/05 09:57:05;;;;;;;3.53;2.80;;;11.70;59.30;;;;;;4869767;29;20041;-80
2024/03/05 09:59:31;;;;;;;3.38;2.38;;;11.70;58.80;;;;;;4852987;29;20034;-80
2024/03/05 10:01:57;;;;;;;2.42;2.22;;;11.70;58.70;;;;;;4854923;29;20614;-80
2024/03/05 10:04:28;;;;;;;3.03;2.40;;;11.70;58.70;;;;;;4854336;29;20129;-79
2024/03/05 10:07:26;;;;;;;2.45;2.25;;;11.70;58.40;;;;;;4853632;29;20103;-80
2024/03/05 10:10:10;;;;;;;2.47;2.03;;;11.80;58.90;;;;;;4868438;29;20037;-80
2024/03/05 10:12:36;;;;;;;2.97;2.10;;;11.70;58.40;;;;;;4853330;29;20405;-81
2024/03/05 10:15:20;;;;;;;3.13;1.70;;;11.80;58.10;;;;;;4853275;29;20168;-80
2024/03/05 10:17:49;;;;;;;2.38;1.90;;;11.80;58.00;;;;;;4854121;29;20049;-79
2024/03/05 10:20:30;;;;;;;3.38;2.25;;;11.80;57.40;;;;;;4853672;29;20045;-80
2024/03/05 10:22:57;;;;;;;1.83;1.63;;;11.80;57.30;;;;;;4868017;29;20120;-81
2024/03/05 10:25:25;;;;;;;2.10;1.90;;;11.80;57.20;;;;;;4851923;29;20056;-79
2024/03/05 10:27:51;;;;;;;4.60;2.60;;;11.80;57.00;;;;;;4853696;29;20045;-79
2024/03/05 10:30:25;;;;;;;2.20;1.67;;;11.80;56.40;;;;;;4853582;29;20497;-79
2024/03/05 10:32:56;;;;;;;2.28;1.58;;;11.80;56.30;;;;;;4837517;29;20045;-80
2024/03/05 10:35:49;;;;;;;2.17;1.80;;;11.80;56.40;;;;;;4867134;29;20056;-80
2024/03/05 10:38:17;;;;;;;2.58;1.77;;;11.90;56.30;;;;;;4837884;29;20196;-79
2024/03/05 10:40:46;;;;;;;2.03;1.50;;;11.90;56.20;;;;;;4853924;29;20102;-80
2024/03/05 10:43:16;;;;;;;1.52;1.42;;;11.90;56.20;;;;;;4852830;29;20477;-80
2024/03/05 10:45:44;;;;;;;2.33;1.60;;;11.90;56.30;;;;;;4851829;29;20244;-80
2024/03/05 10:48:14;;;;;;;2.20;1.60;;;12.00;56.60;;;;;;4851730;29;20061;-80
2024/03/05 10:50:43;;;;;;;1.67;1.45;;;11.90;56.80;;;;;;4866019;29;20057;-80
2024/03/05 10:53:11;;;;;;;3.17;1.40;;;12.00;56.10;;;;;;4852985;29;20040;-80
2024/03/05 10:55:37;;;;;;;1.48;1.35;;;12.00;56.00;;;;;;4870255;29;20044;-80
2024/03/05 11:00:39;;;;;;;;;;;12.00;55.50;;;;;;4838269;29;20060;-79
2024/03/05 11:03:07;;;;;;;1.58;1.35;;;12.00;55.50;;;;;;4867936;29;19946;-80
2024/03/05 11:05:47;;;;;;;2.72;1.42;;;12.00;55.30;;;;;;4864423;29;20118;-80
2024/03/05 11:08:18;;;;;;;1.42;1.05;;;12.00;55.10;;;;;;4852517;29;20401;-80
2024/03/05 11:10:51;;;;;;;1.67;1.17;;;12.10;55.10;;;;;;4837338;29;20038;-80
2024/03/05 11:13:19;;;;;;;1.23;1.02;;;12.10;55.20;;;;;;4870285;29;20037;-82
2024/03/05 11:15:45;;;;;;;1.75;1.02;;;12.10;55.10;;;;;;4834063;29;20040;-80
2024/03/05 11:18:33;;;;;;;1.63;0.90;;;12.10;55.30;;;;;;4852309;29;20055;-81
2024/03/05 11:21:10;;;;;;;2.10;1.23;;;12.10;55.00;;;;;;4853903;29;20413;-79
2024/03/05 11:23:51;;;;;;;1.23;1.10;;;12.10;54.70;;;;;;4854569;29;20084;-79
2024/03/05 11:26:19;;;;;;;1.20;1.10;;;12.10;54.80;;;;;;4853231;29;20075;-78
2024/03/05 11:28:47;;;;;;;0.93;0.80;;;12.10;55.30;;;;;;4851463;29;20525;-77
2024/03/05 11:31:17;;;;;;;0.80;0.80;;;12.10;54.50;;;;;;4854532;29;20432;-81
2024/03/05 11:33:57;;;;;;;0.63;0.60;;;12.10;54.10;;;;;;4853215;29;20630;-82
2024/03/05 11:36:24;;;;;;;0.80;0.80;;;12.10;54.40;;;;;;4853793;29;20045;-79
2024/03/05 11:39:20;;;;;;;0.82;0.80;;;12.10;54.30;;;;;;4854673;29;20129;-78
2024/03/05 11:41:47;;;;;;;1.33;0.85;;;12.10;54.20;;;;;;4854161;29;20033;-79
2024/03/05 11:44:41;;;;;;;0.75;0.70;;;12.20;54.60;;;;;;4855311;29;20057;-80
2024/03/05 11:47:08;;;;;;;0.98;0.55;;;12.10;54.80;;;;;;4851399;29;20409;-80
2024/03/05 11:49:52;;;;;;;1.23;0.70;;;12.20;54.90;;;;;;4851206;29;20366;-79
2024/03/05 11:52:18;;;;;;;1.05;0.70;;;12.20;55.00;;;;;;4853369;29;20042;-79
2024/03/05 11:54:55;;;;;;;1.00;0.60;;;12.20;55.10;;;;;;4853530;29;20489;-79
2024/03/05 11:57:21;;;;;;;0.52;0.50;;;12.20;55.30;;;;;;4864570;29;20033;-78
2024/03/05 11:59:48;;;;;;;0.85;0.60;;;12.20;55.10;;;;;;4853280;29;20045;-78
2024/03/05 12:02:15;;;;;;;0.88;0.70;;;12.20;55.10;;;;;;4853066;29;20505;-80
2024/03/05 12:04:48;;;;;;;1.00;0.60;;;12.20;55.00;;;;;;4850806;29;20572;-79
2024/03/05 12:07:15;;;;;;;1.02;0.60;;;12.20;54.60;;;;;;4855176;29;20561;-79
2024/03/05 12:09:41;;;;;;;0.57;0.57;;;12.20;54.80;;;;;;4853112;29;20087;-79
2024/03/05 12:12:12;;;;;;;0.70;0.60;;;12.20;54.70;;;;;;4849954;29;20451;-78
2024/03/05 12:14:50;;;;;;;0.98;0.70;;;12.20;54.90;;;;;;4850134;29;20045;-78
2024/03/05 12:17:18;;;;;;;0.65;0.47;;;12.20;54.90;;;;;;4836377;29;20521;-76
2024/03/05 12:19:46;;;;;;;0.63;0.50;;;12.20;54.70;;;;;;4850497;29;20079;-76
2024/03/05 12:22:12;;;;;;;1.30;0.60;;;12.20;54.70;;;;;;4850630;29;20045;-77
2024/03/05 12:24:39;;;;;;;0.70;0.70;;;12.30;55.00;;;;;;4863661;29;20050;-76
2024/03/05 12:27:06;;;;;;;1.00;0.80;;;12.30;55.10;;;;;;4846589;29;20045;-78
2024/03/05 12:29:35;;;;;;;0.63;0.60;;;12.30;54.70;;;;;;4847590;29;20379;-77
2024/03/05 12:32:06;;;;;;;0.70;0.60;;;12.30;55.10;;;;;;4848907;29;20561;-78
2024/03/05 12:34:35;;;;;;;1.15;0.70;;;12.20;55.50;;;;;;4850625;29;20041;-77
2024/03/05 12:37:02;;;;;;;1.52;0.75;;;12.30;54.30;;;;;;4850898;29;20128;-78
2024/03/05 12:39:28;;;;;;;0.82;0.60;;;12.20;54.60;;;;;;4835239;29;20041;-78
2024/03/05 12:42:05;;;;;;;1.25;0.52;;;12.20;54.60;;;;;;4839330;29;20040;-79
2024/03/05 12:44:33;;;;;;;0.50;0.50;;;12.20;54.30;;;;;;4849519;29;20040;-79
2024/03/05 12:47:07;;;;;;;0.90;0.60;;;12.20;54.10;;;;;;4849678;29;20171;-79
2024/03/05 12:49:40;;;;;;;1.02;0.60;;;12.20;54.00;;;;;;4849296;29;20033;-79
2024/03/05 12:52:08;;;;;;;0.82;0.60;;;12.20;54.40;;;;;;4849396;29;20036;-80
2024/03/05 12:54:34;;;;;;;0.57;0.50;;;12.20;54.30;;;;;;4848500;29;20098;-79
2024/03/05 12:57:00;;;;;;;0.70;0.50;;;12.20;54.20;;;;;;4851269;29;20096;-82
2024/03/05 12:59:26;;;;;;;0.60;0.40;;;12.20;54.50;;;;;;4835528;29;20048;-80
2024/03/05 13:01:56;;;;;;;0.88;0.40;;;12.20;54.40;;;;;;4852138;29;20045;-80